Time;durP1;ratioP1;P1;durP2;ratioP2;P2;SDS_P1;SDS_P2;PMS_P1;PMS_P2;Temp;Humidity;BMP_temperature;BMP_pressure;BME280_temperature;BME280_humidity;BME280_pressure;Samples;Min_cycle;Max_cycle;Signal;HPM_P1;HPM_P2
2022/02/25 00:00:41;;;;;;;5.95;1.80;;;;;;;-149.78;100.00;50516.44;4790191;29;20066;-72
2022/02/25 00:03:08;;;;;;;14.13;2.72;;;;;;;-149.78;100.00;50463.63;4789625;30;20450;-71
2022/02/25 00:05:34;;;;;;;5.35;2.00;;;;;;;-149.78;100.00;50494.91;4773085;30;20049;-72
2022/02/25 00:08:00;;;;;;;9.18;2.03;;;;;;;-149.78;100.00;50438.19;4789376;30;20035;-72
2022/02/25 00:10:26;;;;;;;11.55;2.38;;;;;;;-149.78;100.00;50467.53;4788340;30;20495;-72
2022/02/25 00:12:52;;;;;;;13.10;2.28;;;;;;;-149.78;100.00;50471.44;4790399;30;20071;-72
2022/02/25 00:15:18;;;;;;;10.23;2.20;;;;;;;-149.78;100.00;50492.97;4790258;30;20126;-71
2022/02/25 00:17:43;;;;;;;13.57;2.33;;;;;;;-149.78;100.00;50471.44;4759492;30;20051;-71
2022/02/25 00:20:11;;;;;;;7.43;1.80;;;;;;;-149.78;100.00;50449.94;4789964;30;20591;-72
2022/02/25 00:22:38;;;;;;;9.07;2.40;;;;;;;-149.78;100.00;50428.41;4773976;30;20073;-71
2022/02/25 00:25:04;;;;;;;18.00;1.80;;;;;;;-149.78;100.00;50483.19;4789961;30;20100;-72
2022/02/25 00:27:30;;;;;;;9.20;1.65;;;;;;;-149.78;100.00;50483.19;4789925;30;20837;-71
2022/02/25 00:29:55;;;;;;;12.63;2.10;;;;;;;-149.78;100.00;50463.63;4773841;30;20047;-73
2022/02/25 00:32:21;;;;;;;7.10;1.70;;;;;;;-149.78;100.00;50459.72;4773509;30;20077;-72
2022/02/25 00:34:46;;;;;;;5.00;1.88;;;;;;;-149.78;100.00;50473.41;4788544;30;20050;-71
2022/02/25 00:37:12;;;;;;;4.70;1.65;;;;;;;-149.78;100.00;50498.81;4788567;30;20031;-72
2022/02/25 00:39:38;;;;;;;11.75;2.38;;;;;;;-149.78;100.00;50489.03;4789843;30;20039;-71
2022/02/25 00:42:10;;;;;;;11.05;1.92;;;;;;;-149.78;100.00;50487.09;4789553;29;20449;-72
2022/02/25 00:44:37;;;;;;;7.97;2.03;;;;;;;-149.78;100.00;50467.53;4789471;30;20040;-72
2022/02/25 00:47:03;;;;;;;12.65;2.38;;;;;;;-149.78;100.00;50500.78;4789336;30;20044;-72
2022/02/25 00:49:29;;;;;;;8.95;2.25;;;;;;;-149.78;100.00;50455.81;4789410;30;20035;-72
2022/02/25 00:51:57;;;;;;;15.25;2.35;;;;;;;-149.78;100.00;50506.66;4788233;30;20043;-72
2022/02/25 00:54:23;;;;;;;8.20;2.35;;;;;;;-149.78;100.00;50447.97;4789242;30;20039;-72
2022/02/25 00:56:49;;;;;;;10.18;1.63;;;;;;;-149.78;100.00;50502.75;4773465;30;20085;-71
2022/02/25 00:59:16;;;;;;;20.42;2.10;;;;;;;-149.78;100.00;50471.44;4787843;29;20043;-71
2022/02/25 01:01:46;;;;;;;11.93;2.08;;;;;;;-149.78;100.00;50465.56;4773655;30;20557;-72
2022/02/25 01:04:13;;;;;;;12.60;2.42;;;;;;;-149.78;100.00;50447.97;4773042;30;20047;-71
2022/02/25 01:06:42;;;;;;;20.42;3.00;;;;;;;-149.78;100.00;50465.56;4759165;30;20066;-71
2022/02/25 01:09:11;;;;;;;17.55;2.63;;;;;;;-149.78;100.00;50449.94;4773438;30;20500;-72
2022/02/25 01:11:38;;;;;;;14.77;2.03;;;;;;;-149.78;100.00;50491.00;4789048;30;20085;-71
2022/02/25 01:14:04;;;;;;;16.35;2.95;;;;;;;-149.78;100.00;50471.44;4787936;30;20096;-71
2022/02/25 01:16:29;;;;;;;12.23;2.25;;;;;;;-149.78;100.00;50420.59;4788292;29;20039;-71
2022/02/25 01:18:55;;;;;;;13.18;2.63;;;;;;;-149.78;100.00;50455.81;4787782;30;20039;-72
2022/02/25 01:21:21;;;;;;;12.77;2.25;;;;;;;-149.78;100.00;50459.72;4772861;30;20479;-72
2022/02/25 01:23:46;;;;;;;21.27;3.30;;;;;;;-149.78;100.00;50434.28;4788984;30;20125;-71
2022/02/25 01:26:12;;;;;;;10.60;2.60;;;;;;;-149.78;100.00;50483.19;4772920;30;20047;-72
2022/02/25 01:28:37;;;;;;;21.95;4.05;;;;;;;-149.78;100.00;50461.66;4787963;30;20488;-72
2022/02/25 01:31:03;;;;;;;22.05;3.53;;;;;;;-149.78;100.00;50432.31;4788825;30;20063;-71
2022/02/25 01:33:29;;;;;;;14.23;2.40;;;;;;;-149.78;100.00;50475.34;4802839;29;20034;-72
2022/02/25 01:35:56;;;;;;;19.90;2.38;;;;;;;-149.78;100.00;50463.63;4806591;29;20042;-72
2022/02/25 01:38:22;;;;;;;8.55;2.50;;;;;;;-149.78;100.00;50465.56;4806820;29;20109;-72
2022/02/25 01:40:50;;;;;;;17.65;2.58;;;;;;;-149.78;100.00;50487.09;4790781;29;20051;-72
2022/02/25 01:43:16;;;;;;;16.13;3.28;;;;;;;-149.78;100.00;50447.97;4792739;29;20035;-72
2022/02/25 01:45:42;;;;;;;10.52;2.00;;;;;;;-149.78;100.00;50463.63;4788593;30;20039;-72
2022/02/25 01:48:08;;;;;;;15.48;2.78;;;;;;;-149.78;100.00;50469.50;4772366;30;20050;-72
2022/02/25 01:50:35;;;;;;;23.50;2.83;;;;;;;-149.78;100.00;50459.72;4788652;30;20053;-72
2022/02/25 01:53:05;;;;;;;23.60;3.03;;;;;;;-149.78;100.00;50449.94;4788552;30;20054;-72
2022/02/25 01:55:31;;;;;;;12.30;2.42;;;;;;;-149.78;100.00;50428.41;4788476;30;20059;-72
2022/02/25 01:57:57;;;;;;;17.20;2.80;;;;;;;-149.78;100.00;50485.13;4788361;30;20035;-72
2022/02/25 02:00:23;;;;;;;20.85;2.75;;;;;;;-149.78;100.00;50475.34;4772073;30;20055;-72
2022/02/25 02:02:49;;;;;;;17.10;2.95;;;;;;;-149.78;100.00;50463.63;4771723;30;20054;-72
2022/02/25 02:05:15;;;;;;;15.55;2.88;;;;;;;-149.78;100.00;50455.81;4788176;30;20077;-72
2022/02/25 02:07:41;;;;;;;17.23;2.53;;;;;;;-149.78;100.00;50471.44;4788199;30;20043;-72
2022/02/25 02:10:07;;;;;;;19.88;2.72;;;;;;;-149.78;100.00;50444.06;4788325;30;20047;-72
2022/02/25 02:12:33;;;;;;;16.70;2.95;;;;;;;-149.78;100.00;50491.00;4787179;30;20047;-72
2022/02/25 02:14:58;;;;;;;20.25;2.60;;;;;;;-149.78;100.00;50512.50;4787290;30;20134;-72
2022/02/25 02:17:24;;;;;;;16.70;2.72;;;;;;;-149.78;100.00;50471.44;4772092;30;20081;-72
2022/02/25 02:19:50;;;;;;;12.40;2.30;;;;;;;-149.78;100.00;50432.31;4772406;30;20035;-72
2022/02/25 02:22:16;;;;;;;14.18;2.20;;;;;;;-149.78;100.00;50459.72;4772143;30;20039;-71
2022/02/25 02:24:41;;;;;;;13.85;2.20;;;;;;;-149.78;100.00;50475.34;4787185;30;20046;-72
2022/02/25 02:27:07;;;;;;;11.55;2.15;;;;;;;-149.78;100.00;50475.34;4788002;30;20054;-72
2022/02/25 02:29:33;;;;;;;25.23;2.40;;;;;;;-149.78;100.00;50473.41;4793628;29;20039;-72
2022/02/25 02:31:58;;;;;;;18.23;2.58;;;;;;;-149.78;100.00;50451.88;4794188;30;20038;-71
2022/02/25 02:34:31;;;;;;;15.25;2.40;;;;;;;-149.78;100.00;50463.63;4795322;29;20113;-73
2022/02/25 02:36:56;;;;;;;20.65;2.63;;;;;;;-149.78;100.00;50428.41;4812106;29;20060;-72
2022/02/25 02:39:22;;;;;;;24.85;2.95;;;;;;;-149.78;100.00;50455.81;4812135;29;20496;-72
2022/02/25 02:41:50;;;;;;;19.00;2.88;;;;;;;-149.78;100.00;50485.13;4807740;29;20046;-72
2022/02/25 02:44:16;;;;;;;8.43;2.17;;;;;;;-149.78;100.00;50436.25;4794835;29;20035;-72
2022/02/25 02:46:41;;;;;;;16.48;2.90;;;;;;;-149.78;100.00;50463.63;4805713;29;20552;-72
2022/02/25 02:49:08;;;;;;;14.23;2.75;;;;;;;-149.78;100.00;50483.19;4777942;30;20480;-72
2022/02/25 02:51:35;;;;;;;18.23;3.00;;;;;;;-149.78;100.00;50436.25;4801590;29;20046;-72
2022/02/25 02:54:00;;;;;;;10.27;3.40;;;;;;;-149.78;100.00;50451.88;4811973;29;20038;-72
2022/02/25 02:56:27;;;;;;;19.42;2.72;;;;;;;-149.78;100.00;50473.41;4786670;29;20054;-71
2022/02/25 02:58:57;;;;;;;10.10;2.38;;;;;;;-149.78;100.00;50475.34;4811569;29;20056;-72
2022/02/25 03:01:29;;;;;;;16.00;3.15;;;;;;;-149.78;100.00;50451.88;4798655;29;20085;-72
2022/02/25 03:03:54;;;;;;;17.10;2.85;;;;;;;-149.78;100.00;50506.66;4811923;29;20075;-72
2022/02/25 03:06:20;;;;;;;16.25;2.95;;;;;;;-149.78;100.00;50428.41;4810447;29;20047;-72
2022/02/25 03:08:48;;;;;;;15.65;3.25;;;;;;;-149.78;100.00;50479.28;4810167;29;20599;-72
2022/02/25 03:11:18;;;;;;;17.13;3.45;;;;;;;-149.78;100.00;50414.72;4796096;29;20047;-72
2022/02/25 03:13:46;;;;;;;13.00;2.80;;;;;;;-149.78;100.00;50471.44;4810601;29;20035;-72
2022/02/25 03:16:12;;;;;;;17.33;2.70;;;;;;;-149.78;100.00;50494.91;4812084;29;20046;-72
2022/02/25 03:18:41;;;;;;;14.57;2.92;;;;;;;-149.78;100.00;50479.28;4811749;29;20038;-72
2022/02/25 03:21:10;;;;;;;19.67;3.08;;;;;;;-149.78;100.00;50463.63;4780617;29;20043;-72
2022/02/25 03:23:36;;;;;;;19.73;3.22;;;;;;;-149.78;100.00;50449.94;4810473;29;20046;-72
2022/02/25 03:26:03;;;;;;;8.65;2.58;;;;;;;-149.78;100.00;50459.72;4795465;29;20046;-72
2022/02/25 03:28:29;;;;;;;18.67;2.55;;;;;;;-149.78;100.00;50467.53;4811797;29;20070;-72
2022/02/25 03:30:55;;;;;;;16.13;3.20;;;;;;;-149.78;100.00;50483.19;4811704;29;20035;-72
2022/02/25 03:33:21;;;;;;;20.73;3.22;;;;;;;-149.78;100.00;50483.19;4795437;29;20053;-72
2022/02/25 03:35:47;;;;;;;11.55;2.47;;;;;;;-149.78;100.00;50479.28;4795383;29;20038;-72
2022/02/25 03:38:12;;;;;;;9.55;2.50;;;;;;;-149.78;100.00;50451.88;4811707;29;20076;-72
2022/02/25 03:40:38;;;;;;;17.85;2.60;;;;;;;-149.78;100.00;50436.25;4792403;29;20050;-72
2022/02/25 03:43:03;;;;;;;16.73;3.08;;;;;;;-149.78;100.00;50459.72;4806325;29;20047;-72
2022/02/25 03:45:29;;;;;;;17.17;2.45;;;;;;;-149.78;100.00;50491.00;4807505;29;20035;-72
2022/02/25 03:47:55;;;;;;;11.45;2.70;;;;;;;-149.78;100.00;50483.19;4793304;29;20040;-72
2022/02/25 03:50:20;;;;;;;14.15;2.25;;;;;;;-149.78;100.00;50475.34;4774580;30;20040;-72
2022/02/25 03:52:47;;;;;;;12.32;2.13;;;;;;;-149.78;100.00;50455.81;4790675;30;20043;-72
2022/02/25 03:55:13;;;;;;;13.40;3.30;;;;;;;-149.78;100.00;50455.81;4790651;30;20092;-72
2022/02/25 03:57:39;;;;;;;7.22;1.92;;;;;;;-149.78;100.00;50463.63;4790404;30;20122;-72
2022/02/25 04:00:07;;;;;;;12.15;2.20;;;;;;;-149.78;100.00;50428.41;4774345;30;20063;-72
2022/02/25 04:02:33;;;;;;;10.35;2.20;;;;;;;-149.78;100.00;50467.53;4790422;30;20039;-72
2022/02/25 04:04:59;;;;;;;9.18;1.77;;;;;;;-149.78;100.00;50463.63;4793387;29;20517;-72
2022/02/25 04:07:25;;;;;;;9.73;1.75;;;;;;;-149.78;100.00;50440.16;4808315;29;20080;-71
2022/02/25 04:09:51;;;;;;;10.43;2.08;;;;;;;-149.78;100.00;50475.34;4807199;29;20491;-71
2022/02/25 04:12:18;;;;;;;18.50;2.28;;;;;;;-149.78;100.00;50461.66;4808284;29;20051;-72
2022/02/25 04:14:44;;;;;;;17.25;2.45;;;;;;;-149.78;100.00;50471.44;4791978;29;20329;-72
2022/02/25 04:17:10;;;;;;;10.68;2.08;;;;;;;-149.78;100.00;50471.44;4808360;29;20039;-72
2022/02/25 04:19:36;;;;;;;9.88;3.85;;;;;;;-149.78;100.00;50451.88;4807003;29;20480;-72
2022/02/25 04:22:02;;;;;;;17.08;2.00;;;;;;;-149.78;100.00;50473.41;4801885;29;20050;-72
2022/02/25 04:24:27;;;;;;;17.50;2.15;;;;;;;-149.78;100.00;50447.97;4778040;29;20040;-72
2022/02/25 04:26:53;;;;;;;14.50;2.50;;;;;;;-149.78;100.00;50430.38;4777819;29;20066;-72
2022/02/25 04:29:19;;;;;;;13.93;1.90;;;;;;;-149.78;100.00;50491.00;4806239;29;20042;-71
2022/02/25 04:31:44;;;;;;;12.35;2.38;;;;;;;-149.78;100.00;50471.44;4788070;29;20395;-72
2022/02/25 04:34:10;;;;;;;11.35;2.80;;;;;;;-149.78;100.00;50436.25;4795788;29;20078;-72
2022/02/25 04:36:36;;;;;;;11.55;1.67;;;;;;;-149.78;100.00;50453.84;4791605;29;20407;-72
2022/02/25 04:39:05;;;;;;;11.73;1.60;;;;;;;-149.78;100.00;50467.53;4806596;29;20039;-72
2022/02/25 04:41:31;;;;;;;8.85;2.30;;;;;;;-149.78;100.00;50408.84;4761279;30;20392;-72
2022/02/25 04:43:57;;;;;;;11.32;2.05;;;;;;;-149.78;100.00;50453.84;4805441;29;20050;-71
2022/02/25 04:46:26;;;;;;;9.50;2.08;;;;;;;-149.78;100.00;50496.88;4806433;29;20043;-72
2022/02/25 04:48:53;;;;;;;15.48;2.75;;;;;;;-149.78;100.00;50447.97;4807481;29;20031;-71
2022/02/25 04:51:21;;;;;;;21.05;2.50;;;;;;;-149.78;100.00;50471.44;4806877;29;20099;-72
2022/02/25 04:53:48;;;;;;;15.95;1.98;;;;;;;-149.78;100.00;50471.44;4791176;29;20039;-72
2022/02/25 04:56:14;;;;;;;13.00;1.90;;;;;;;-149.78;100.00;50440.16;4791478;29;20041;-72
2022/02/25 04:58:40;;;;;;;13.50;2.28;;;;;;;-149.78;100.00;50479.28;4791088;29;20044;-72
2022/02/25 05:01:07;;;;;;;16.27;2.60;;;;;;;-149.78;100.00;50494.91;4806798;29;20057;-72
2022/02/25 05:03:33;;;;;;;22.10;2.90;;;;;;;-149.78;100.00;50494.91;4807404;29;20118;-72
2022/02/25 05:06:00;;;;;;;12.93;2.20;;;;;;;-149.78;100.00;50463.63;4807345;29;20054;-72
2022/02/25 05:08:26;;;;;;;13.13;1.95;;;;;;;-149.78;100.00;50447.97;4807157;29;20042;-72
2022/02/25 05:10:53;;;;;;;19.52;2.33;;;;;;;-149.78;100.00;50473.41;4807119;29;20544;-72
2022/02/25 05:13:19;;;;;;;13.23;2.20;;;;;;;-149.78;100.00;50467.53;4807291;29;20046;-72
2022/02/25 05:21:14;;;;;;;13.90;2.95;;;;;;;-149.78;100.00;50475.34;4807154;29;20122;-72
2022/02/25 05:23:40;;;;;;;13.85;1.63;;;;;;;-149.78;100.00;50453.84;4805780;29;20051;-72
2022/02/25 05:26:05;;;;;;;9.15;2.22;;;;;;;-149.78;100.00;50463.63;4806878;29;20387;-72
2022/02/25 05:28:31;;;;;;;11.50;2.33;;;;;;;-149.78;100.00;50481.22;4805889;29;20070;-72
2022/02/25 05:30:56;;;;;;;11.23;2.15;;;;;;;-149.78;100.00;50467.53;4804466;29;20056;-72
2022/02/25 05:33:22;;;;;;;13.63;2.45;;;;;;;-149.78;100.00;50461.66;4785404;29;20054;-72
2022/02/25 05:35:47;;;;;;;8.40;1.42;;;;;;;-149.78;100.00;50420.59;4771004;30;20043;-72
2022/02/25 05:38:13;;;;;;;12.68;1.98;;;;;;;-149.78;100.00;50467.53;4769746;30;20047;-72
2022/02/25 05:40:39;;;;;;;17.58;2.63;;;;;;;-149.78;100.00;50479.28;4770699;30;20136;-72
2022/02/25 05:43:06;;;;;;;19.70;2.67;;;;;;;-149.78;100.00;50465.56;4782863;29;20131;-72
2022/02/25 05:45:33;;;;;;;10.90;2.00;;;;;;;-149.78;100.00;50479.28;4806575;29;20034;-72
2022/02/25 05:47:58;;;;;;;21.48;2.53;;;;;;;-149.78;100.00;50487.09;4790393;29;20035;-72
2022/02/25 05:50:24;;;;;;;7.78;2.05;;;;;;;-149.78;100.00;50467.53;4806551;29;20045;-72
2022/02/25 05:52:51;;;;;;;12.93;2.35;;;;;;;-149.78;100.00;50471.44;4806253;29;20034;-72
2022/02/25 05:55:20;;;;;;;12.30;1.60;;;;;;;-149.78;100.00;50494.91;4806295;29;20049;-72
2022/02/25 05:57:46;;;;;;;7.97;1.58;;;;;;;-149.78;100.00;50461.66;4805159;29;20123;-72
2022/02/25 06:00:14;;;;;;;7.85;1.38;;;;;;;-149.78;100.00;50440.16;4804981;29;20491;-72
2022/02/25 06:02:42;;;;;;;11.45;1.77;;;;;;;-149.78;100.00;50447.97;4806078;29;20098;-72
2022/02/25 06:05:08;;;;;;;11.35;1.90;;;;;;;-149.78;100.00;50447.97;4806461;29;20118;-72
2022/02/25 06:07:33;;;;;;;13.10;1.88;;;;;;;-149.78;100.00;50489.03;4805140;29;20117;-72
2022/02/25 06:09:59;;;;;;;13.05;1.90;;;;;;;-149.78;100.00;50424.50;4806424;29;20127;-72
2022/02/25 06:12:24;;;;;;;7.18;0.95;;;;;;;-149.78;100.00;50451.88;4790207;29;20092;-72
2022/02/25 06:14:50;;;;;;;7.18;1.10;;;;;;;-149.78;100.00;50479.28;4790238;29;20047;-71
2022/02/25 06:17:16;;;;;;;5.50;0.75;;;;;;;-149.78;100.00;50500.78;4790446;29;20083;-72
2022/02/25 06:19:42;;;;;;;9.55;1.02;;;;;;;-149.78;100.00;50463.63;4805010;29;20043;-72
2022/02/25 06:22:08;;;;;;;3.03;0.75;;;;;;;-149.78;100.00;50477.31;4806547;29;20445;-72
2022/02/25 06:24:33;;;;;;;5.03;1.02;;;;;;;-149.78;100.00;50483.19;4806114;29;20042;-72
2022/02/25 06:27:00;;;;;;;6.63;0.95;;;;;;;-149.78;100.00;50436.25;4789945;29;20043;-72
2022/02/25 06:29:25;;;;;;;8.75;1.30;;;;;;;-149.78;100.00;50471.44;4806145;29;20103;-72
2022/02/25 06:31:51;;;;;;;6.00;1.10;;;;;;;-149.78;100.00;50491.00;4796839;29;20043;-72
2022/02/25 06:34:17;;;;;;;10.68;1.10;;;;;;;-149.78;100.00;50467.53;4797378;29;20041;-72
2022/02/25 06:36:43;;;;;;;7.05;1.10;;;;;;;-149.78;100.00;50489.03;4790066;29;20491;-72
2022/02/25 06:39:08;;;;;;;12.30;1.50;;;;;;;-149.78;100.00;50487.09;4806012;29;20054;-72
2022/02/25 06:41:34;;;;;;;7.25;1.10;;;;;;;-149.78;100.00;50483.19;4805621;29;20046;-72
2022/02/25 06:44:01;;;;;;;9.82;1.38;;;;;;;-149.78;100.00;50475.34;4787622;29;20043;-71
2022/02/25 06:46:27;;;;;;;9.13;1.65;;;;;;;-149.78;100.00;50498.81;4787461;30;20036;-71
2022/02/25 06:48:53;;;;;;;10.35;1.65;;;;;;;-149.78;100.00;50485.13;4787889;30;20043;-72
2022/02/25 06:51:18;;;;;;;18.10;2.47;;;;;;;-149.78;100.00;50483.19;4787796;30;20371;-72
2022/02/25 06:53:44;;;;;;;9.73;1.38;;;;;;;-149.78;100.00;50475.34;4786522;30;20059;-72
2022/02/25 06:56:10;;;;;;;14.50;1.85;;;;;;;-149.78;100.00;50498.81;4787682;30;20043;-72
2022/02/25 06:58:35;;;;;;;10.95;1.73;;;;;;;-149.78;100.00;50459.72;4787705;29;20040;-72
2022/02/25 07:01:03;;;;;;;18.48;2.67;;;;;;;-149.78;100.00;50494.91;4786463;29;20095;-72
2022/02/25 07:03:29;;;;;;;10.88;1.70;;;;;;;-149.78;100.00;50467.53;4781894;30;20047;-72
2022/02/25 07:05:54;;;;;;;11.05;2.20;;;;;;;-149.78;100.00;50471.44;4771441;30;20050;-72
2022/02/25 07:08:23;;;;;;;13.88;1.80;;;;;;;-149.78;100.00;50492.97;4777563;30;20460;-72
2022/02/25 07:10:49;;;;;;;13.95;2.28;;;;;;;-149.78;100.00;50481.22;4781168;30;20050;-72
2022/02/25 07:13:16;;;;;;;15.60;2.15;;;;;;;-149.78;100.00;50444.06;4782989;30;20483;-72
2022/02/25 07:15:41;;;;;;;14.95;2.42;;;;;;;-149.78;100.00;50475.34;4780787;30;20042;-72
2022/02/25 07:18:08;;;;;;;10.07;1.88;;;;;;;-149.78;100.00;50479.28;4781400;30;20024;-72
2022/02/25 07:20:36;;;;;;;15.23;2.22;;;;;;;-149.78;100.00;50475.34;4769800;30;20458;-72
2022/02/25 07:23:03;;;;;;;13.40;2.55;;;;;;;-149.78;100.00;50491.00;4773134;30;20031;-72
2022/02/25 07:25:29;;;;;;;10.48;1.65;;;;;;;-149.78;100.00;50447.97;4772186;30;20043;-73
2022/02/25 07:27:56;;;;;;;12.45;1.92;;;;;;;-149.78;100.00;50455.81;4781582;30;20043;-72
2022/02/25 07:30:22;;;;;;;12.85;2.40;;;;;;;-149.78;100.00;50498.81;4783489;30;20039;-73
2022/02/25 07:32:48;;;;;;;18.80;2.00;;;;;;;-149.78;100.00;50432.31;4787683;29;20089;-74
2022/02/25 07:35:13;;;;;;;14.93;2.45;;;;;;;-149.78;100.00;50451.88;4800601;29;20032;-74
2022/02/25 07:37:40;;;;;;;10.15;2.45;;;;;;;-149.78;100.00;50453.84;4772685;30;20480;-74
2022/02/25 07:40:07;;;;;;;19.13;2.10;;;;;;;-149.78;100.00;50506.66;4782204;30;20035;-72
2022/02/25 07:42:34;;;;;;;10.00;2.10;;;;;;;-149.78;100.00;50487.09;4790648;30;20364;-74
2022/02/25 07:45:00;;;;;;;10.02;2.13;;;;;;;-149.78;100.00;50461.66;4789737;30;20047;-72
2022/02/25 07:47:26;;;;;;;20.98;2.35;;;;;;;-149.78;100.00;50459.72;4790813;30;20047;-71
2022/02/25 07:49:53;;;;;;;14.52;2.30;;;;;;;-149.78;100.00;50475.34;4795029;29;20043;-74
2022/02/25 07:52:20;;;;;;;14.18;2.22;;;;;;;-149.78;100.00;50494.91;4780552;29;20091;-72
2022/02/25 07:54:45;;;;;;;7.93;2.38;;;;;;;-149.78;100.00;50479.28;4781785;29;20477;-72
2022/02/25 07:57:12;;;;;;;10.15;2.13;;;;;;;-149.78;100.00;50447.97;4782841;29;20060;-71
2022/02/25 07:59:37;;;;;;;10.85;2.05;;;;;;;-149.78;100.00;50436.25;4776941;29;20051;-71
2022/02/25 08:02:03;;;;;;;17.05;2.53;;;;;;;-149.78;100.00;50475.34;4788573;29;20047;-71
2022/02/25 08:04:30;;;;;;;11.32;1.80;;;;;;;-149.78;100.00;50389.31;4782575;29;20035;-71
2022/02/25 08:06:56;;;;;;;17.30;2.08;;;;;;;-149.78;100.00;50404.94;4771298;29;20046;-72
2022/02/25 08:09:22;;;;;;;9.35;1.55;;;;;;;-149.78;100.00;50479.28;4765897;30;20044;-71
2022/02/25 08:11:48;;;;;;;16.55;2.28;;;;;;;-149.78;100.00;50440.16;4788963;29;20476;-71
2022/02/25 08:14:15;;;;;;;13.55;2.30;;;;;;;-149.78;100.00;50438.19;4787763;29;20614;-71
2022/02/25 08:16:41;;;;;;;15.98;2.05;;;;;;;-149.78;100.00;50455.81;4786676;29;20043;-71
2022/02/25 08:19:07;;;;;;;11.60;2.60;;;;;;;-149.78;100.00;50408.84;4772341;29;20040;-71
2022/02/25 08:21:34;;;;;;;10.80;2.00;;;;;;;-149.78;100.00;50440.16;4770726;30;20119;-71
2022/02/25 08:24:00;;;;;;;13.23;1.95;;;;;;;-149.78;100.00;50459.72;4782693;29;20054;-71
2022/02/25 08:26:26;;;;;;;11.35;1.40;;;;;;;-149.78;100.00;50475.34;4769675;30;20060;-71
2022/02/25 08:28:53;;;;;;;14.80;1.98;;;;;;;-149.78;100.00;50469.50;4770927;29;20043;-71
2022/02/25 08:31:19;;;;;;;20.73;2.17;;;;;;;-149.78;100.00;50467.53;4782349;29;20050;-71
2022/02/25 08:33:45;;;;;;;19.10;2.38;;;;;;;-149.78;100.00;50440.16;4772130;30;20058;-71
2022/02/25 08:36:10;;;;;;;18.10;2.15;;;;;;;-149.78;100.00;50404.94;4780973;29;20484;-71
2022/02/25 08:38:36;;;;;;;19.70;2.40;;;;;;;-149.78;100.00;50387.34;4772853;30;20088;-71
2022/02/25 08:41:03;;;;;;;14.63;2.67;;;;;;;-149.78;100.00;50359.97;4786429;29;20062;-71
2022/02/25 08:43:30;;;;;;;5.18;1.88;;;;;;;-149.78;100.00;50340.41;4790763;29;20027;-71
2022/02/25 08:45:57;;;;;;;14.80;1.95;;;;;;;-149.78;100.00;50311.06;4807146;29;20043;-72
2022/02/25 08:48:23;;;;;;;7.93;1.77;;;;;;;-149.78;100.00;50275.88;4785403;29;20128;-72
2022/02/25 08:50:50;;;;;;;12.20;2.08;;;;;;;-149.78;100.00;50322.81;4776601;29;20047;-72
2022/02/25 08:53:16;;;;;;;16.00;2.30;;;;;;;-149.78;100.00;50299.34;4779162;29;20039;-71
2022/02/25 08:55:42;;;;;;;9.60;1.85;;;;;;;-149.78;100.00;50299.34;4788836;29;20035;-72
2022/02/25 08:58:08;;;;;;;10.82;2.15;;;;;;;-149.78;100.00;50268.03;4791566;29;20147;-72
2022/02/25 09:00:34;;;;;;;8.00;2.28;;;;;;;-149.78;100.00;50256.31;4774307;29;20058;-71
2022/02/25 09:03:00;;;;;;;8.65;1.55;;;;;;;-149.78;100.00;50273.91;4790418;29;20592;-70
2022/02/25 09:05:26;;;;;;;6.55;1.67;;;;;;;-149.78;100.00;50232.84;4795518;29;20395;-73
2022/02/25 09:07:53;;;;;;;6.25;1.90;;;;;;;-149.78;100.00;50283.69;4797107;29;20380;-72
2022/02/25 09:10:19;;;;;;;10.10;2.22;;;;;;;-149.78;84.00;50240.66;4801464;29;20117;-72
2022/02/25 09:12:46;;;;;;;7.05;1.80;;;;;;;-149.78;72.13;50248.50;4791838;29;20126;-72
2022/02/25 09:15:15;;;;;;;10.30;1.70;;;;;;;-149.78;70.61;50236.75;4807359;29;20125;-72
2022/02/25 09:17:41;;;;;;;8.13;1.80;;;;;;;-149.78;63.88;50219.16;4798938;29;20107;-72
2022/02/25 09:20:08;;;;;;;10.38;1.90;;;;;;;-149.78;61.11;50240.66;4805780;29;20130;-72
2022/02/25 09:22:34;;;;;;;10.05;2.08;;;;;;;-149.78;61.65;50219.16;4802376;29;20518;-72
2022/02/25 09:25:01;;;;;;;6.93;1.58;;;;;;;-149.78;60.37;50275.88;4792085;29;20045;-72
2022/02/25 09:27:28;;;;;;;9.70;2.00;;;;;;;-149.78;61.31;50271.97;4800482;29;20031;-72
2022/02/25 09:29:53;;;;;;;9.70;2.03;;;;;;;-149.78;60.77;50248.50;4790679;29;20047;-72
2022/02/25 09:32:19;;;;;;;8.80;1.95;;;;;;;-149.78;57.31;50187.88;4793200;29;20387;-72
2022/02/25 09:34:46;;;;;;;10.68;2.38;;;;;;;-149.78;56.24;50201.56;4790659;29;20045;-72
2022/02/25 09:37:11;;;;;;;10.45;2.00;;;;;;;-149.78;56.46;50226.97;4781062;29;20112;-72
2022/02/25 09:39:37;;;;;;;11.30;2.42;;;;;;;-149.78;54.27;50221.13;4784482;29;20031;-72
2022/02/25 09:42:05;;;;;;;10.38;2.10;;;;;;;-149.78;54.72;50183.97;4789804;29;20066;-72
2022/02/25 09:44:33;;;;;;;9.50;2.22;;;;;;;-149.78;54.82;50213.28;4790542;29;20046;-72
2022/02/25 09:46:59;;;;;;;10.35;1.90;;;;;;;-149.78;54.07;50180.03;4790086;29;20115;-72
2022/02/25 09:49:25;;;;;;;8.90;1.85;;;;;;;-149.78;53.42;50176.13;4805330;29;20491;-72
2022/02/25 09:51:52;;;;;;;6.43;2.03;;;;;;;-149.78;51.50;50197.66;4797153;29;20045;-72
2022/02/25 09:54:19;;;;;;;11.63;2.15;;;;;;;-149.78;51.27;50182.00;4788389;29;20039;-72
2022/02/25 09:56:46;;;;;;;6.40;1.92;;;;;;;-149.78;50.69;50189.81;4803141;29;20047;-72
2022/02/25 09:59:13;;;;;;;12.93;2.17;;;;;;;-149.78;53.99;50225.03;4792673;29;20043;-72
2022/02/25 10:01:39;;;;;;;9.93;1.88;;;;;;;-149.78;51.27;50205.47;4798499;29;20472;-73
2022/02/25 10:04:15;;;;;;;9.98;2.00;;;;;;;-149.78;53.46;50228.94;4790139;29;20075;-72
2022/02/25 10:06:42;;;;;;;10.00;1.90;;;;;;;-149.78;52.41;50187.88;4793135;29;20055;-72
2022/02/25 10:09:25;;;;;;;6.95;2.08;;;;;;;-149.78;51.41;50154.63;4792289;29;20468;-74
2022/02/25 10:12:06;;;;;;;11.00;2.28;;;;;;;-149.78;52.19;50211.34;4796472;29;20507;-74
2022/02/25 10:14:34;;;;;;;8.48;1.90;;;;;;;-149.78;51.66;50189.81;4777282;29;20050;-69
2022/02/25 10:17:21;;;;;;;6.78;1.63;;;;;;;-149.78;51.57;50178.09;4764216;30;20089;-73
2022/02/25 10:19:56;;;;;;;10.32;2.40;;;;;;;-149.78;50.92;50209.38;4778953;29;20043;-73
2022/02/25 10:22:25;;;;;;;6.00;2.00;;;;;;;-149.78;51.24;50182.00;4774141;29;20035;-74
2022/02/25 10:24:53;;;;;;;6.30;1.65;;;;;;;-149.78;50.36;50174.19;4788054;30;20050;-74
2022/02/25 10:27:24;;;;;;;8.38;1.52;;;;;;;-149.78;50.77;50213.28;4770334;30;20078;-74
2022/02/25 10:30:02;;;;;;;10.23;1.95;;;;;;;-149.78;50.19;50162.44;4754147;30;20051;-74
2022/02/25 10:32:31;;;;;;;8.57;1.92;;;;;;;-149.78;49.28;50148.75;4797567;29;20164;-74
2022/02/25 10:34:58;;;;;;;8.63;1.67;;;;;;;-149.78;49.21;50170.25;4774651;30;20062;-74
2022/02/25 10:37:24;;;;;;;9.07;1.98;;;;;;;-149.78;49.04;50135.06;4792145;29;20031;-74
2022/02/25 10:39:50;;;;;;;8.27;1.80;;;;;;;-149.78;48.45;50158.53;4786921;30;20122;-74
2022/02/25 10:42:23;;;;;;;12.95;2.25;;;;;;;-149.78;48.70;50197.66;4798620;29;20126;-74
2022/02/25 10:44:50;;;;;;;10.02;2.13;;;;;;;-149.78;49.84;50182.00;4806002;29;20042;-74
2022/02/25 10:47:26;;;;;;;6.43;1.67;;;;;;;-149.78;48.93;50170.25;4805944;29;20039;-74
2022/02/25 10:50:04;;;;;;;8.60;1.88;;;;;;;-149.78;47.93;50174.19;4802355;29;20039;-73
2022/02/25 10:52:36;;;;;;;6.78;1.83;;;;;;;-149.78;46.94;50142.88;4785779;29;20035;-71
2022/02/25 10:55:03;;;;;;;;;;;;;;;-149.78;47.86;50170.25;4787828;29;20027;-73
2022/02/25 10:57:29;;;;;;;11.15;2.10;;;;;;;-149.78;48.70;50170.25;4783826;29;20007;-74
2022/02/25 10:59:57;;;;;;;6.68;1.65;;;;;;;-149.78;47.97;50142.88;4787625;29;20072;-74
2022/02/25 11:02:29;;;;;;;5.07;1.88;;;;;;;-149.78;48.43;50170.25;4789149;29;20043;-74
2022/02/25 11:05:07;;;;;;;6.50;1.45;;;;;;;-149.78;48.68;50158.53;4792661;29;20559;-73
2022/02/25 11:07:39;;;;;;;11.63;2.03;;;;;;;-149.78;48.55;50162.44;4787844;29;20049;-74